Time;durP1;ratioP1;P1;durP2;ratioP2;P2;SDS_P1;SDS_P2;PMS_P1;PMS_P2;Temp;Humidity;BMP_temperature;BMP_pressure;BME280_temperature;BME280_humidity;BME280_pressure;Samples;Min_cycle;Max_cycle;Signal;HPM_P1;HPM_P2
2023/01/18 00:01:34;;;;;;;16.27;6.60;;;;;;;;;;5033721;28;20087;-64
2023/01/18 00:04:00;;;;;;;16.92;6.93;;;;;;;;;;5014213;28;20404;-64
2023/01/18 00:06:26;;;;;;;14.87;6.37;;;;;;;;;;5001078;28;20029;-66
2023/01/18 00:08:52;;;;;;;15.55;6.55;;;;;;;;;;4996995;28;20026;-66
2023/01/18 00:11:17;;;;;;;15.48;6.50;;;;;;;;;;5029840;28;20029;-64
2023/01/18 00:13:43;;;;;;;15.90;6.50;;;;;;;;;;5001752;28;20056;-66
2023/01/18 00:16:12;;;;;;;15.93;5.63;;;;;;;;;;5009637;28;20026;-64
2023/01/18 00:18:38;;;;;;;13.32;5.75;;;;;;;;;;5012719;28;20120;-63
2023/01/18 00:21:04;;;;;;;13.23;6.00;;;;;;;;;;5023067;28;20140;-65
2023/01/18 00:23:29;;;;;;;15.50;6.15;;;;;;;;;;5004572;28;20548;-65
2023/01/18 00:26:01;;;;;;;15.10;6.77;;;;;;;;;;5013046;28;20497;-64
2023/01/18 00:28:27;;;;;;;13.35;5.57;;;;;;;;;;5009590;28;20025;-64
2023/01/18 00:30:52;;;;;;;13.27;6.03;;;;;;;;;;5023718;28;20025;-64
2023/01/18 00:33:17;;;;;;;18.43;6.63;;;;;;;;;;5002153;28;20027;-63
2023/01/18 00:35:43;;;;;;;13.38;5.80;;;;;;;;;;5013477;28;20037;-65
2023/01/18 00:38:12;;;;;;;13.57;5.80;;;;;;;;;;5007173;28;20021;-64
2023/01/18 00:40:37;;;;;;;13.32;5.97;;;;;;;;;;5012962;28;20076;-64
2023/01/18 00:45:46;;;;;;;12.57;5.43;;;;;;;;;;5019070;28;20057;-66
2023/01/18 00:48:11;;;;;;;13.05;5.32;;;;;;;;;;5022207;28;20019;-64
2023/01/18 00:50:37;;;;;;;13.60;6.10;;;;;;;;;;5042825;28;20030;-66
2023/01/18 00:53:02;;;;;;;13.05;5.70;;;;;;;;;;5023869;28;20045;-65
2023/01/18 00:55:27;;;;;;;12.15;5.68;;;;;;;;;;5015269;28;20042;-65
2023/01/18 00:57:52;;;;;;;12.07;5.53;;;;;;;;;;5013832;28;20475;-66
2023/01/18 01:00:17;;;;;;;13.77;6.10;;;;;;;;;;4997773;28;20042;-64
2023/01/18 01:02:43;;;;;;;13.00;5.60;;;;;;;;;;5001360;28;20552;-66
2023/01/18 01:08:04;;;;;;;13.80;5.28;;;;;;;;;;5021204;28;20033;-65
2023/01/18 01:10:29;;;;;;;13.25;5.50;;;;;;;;;;5016199;28;20068;-63
2023/01/18 01:26:34;;;;;;;14.23;6.10;;;;;;;;;;5003759;28;20040;-63
2023/01/18 01:28:59;;;;;;;13.30;5.13;;;;;;;;;;5027430;28;20026;-64
2023/01/18 01:31:24;;;;;;;13.77;5.23;;;;;;;;;;5010181;28;20035;-63
2023/01/18 01:33:50;;;;;;;13.98;5.95;;;;;;;;;;5009740;28;20053;-64
2023/01/18 01:36:17;;;;;;;12.60;5.68;;;;;;;;;;5021426;28;20025;-66
2023/01/18 01:38:42;;;;;;;11.18;5.07;;;;;;;;;;5021170;28;20471;-65
2023/01/18 01:41:09;;;;;;;12.43;5.03;;;;;;;;;;5010413;28;20026;-65
2023/01/18 01:43:39;;;;;;;16.70;6.05;;;;;;;;;;5009753;28;20037;-65
2023/01/18 01:46:09;;;;;;;13.55;5.30;;;;;;;;;;5010551;28;20030;-66
2023/01/18 01:48:34;;;;;;;12.63;5.45;;;;;;;;;;5022137;28;20027;-65
2023/01/18 01:50:59;;;;;;;12.68;5.53;;;;;;;;;;5000472;28;20129;-65
2023/01/18 01:53:25;;;;;;;13.40;5.80;;;;;;;;;;5011509;28;20121;-65
2023/01/18 01:55:50;;;;;;;13.27;5.45;;;;;;;;;;5015206;28;20144;-64
2023/01/18 01:58:18;;;;;;;12.97;5.50;;;;;;;;;;5022213;28;20501;-66
2023/01/18 02:00:43;;;;;;;10.35;5.25;;;;;;;;;;5005709;28;20026;-65
2023/01/18 02:03:09;;;;;;;13.03;5.80;;;;;;;;;;5009332;28;20022;-64
2023/01/18 02:05:39;;;;;;;10.15;4.97;;;;;;;;;;5013897;28;20437;-64
2023/01/18 02:08:10;;;;;;;12.70;5.57;;;;;;;;;;5021065;28;20047;-66
2023/01/18 02:10:35;;;;;;;10.75;4.90;;;;;;;;;;5003437;28;20148;-65
2023/01/18 02:13:00;;;;;;;12.68;5.40;;;;;;;;;;4995473;28;20034;-69
2023/01/18 02:15:28;;;;;;;16.07;5.63;;;;;;;;;;5007008;28;20029;-64
2023/01/18 02:18:07;;;;;;;14.88;5.63;;;;;;;;;;5020778;28;20022;-64
2023/01/18 02:20:47;;;;;;;13.40;5.50;;;;;;;;;;5012465;28;20029;-66
2023/01/18 02:23:31;;;;;;;14.43;5.65;;;;;;;;;;5010547;28;20447;-64
2023/01/18 02:26:14;;;;;;;13.90;5.30;;;;;;;;;;5009571;28;20064;-64
2023/01/18 02:28:42;;;;;;;11.20;4.97;;;;;;;;;;5018930;28;20069;-65
2023/01/18 02:31:16;;;;;;;11.88;4.85;;;;;;;;;;5005381;28;20077;-63
2023/01/18 02:33:47;;;;;;;14.48;5.05;;;;;;;;;;5013421;28;20041;-65
2023/01/18 02:36:30;;;;;;;12.82;5.35;;;;;;;;;;5018051;28;20105;-65
2023/01/18 02:39:00;;;;;;;11.95;4.78;;;;;;;;;;5019366;28;20018;-64
2023/01/18 02:46:29;;;;;;;13.70;5.78;;;;;;;;;;5009824;28;20479;-64
2023/01/18 02:46:59;;;;;;;12.43;5.40;;;;;;;;;;5011664;28;20077;-65
2023/01/18 02:49:30;;;;;;;11.60;5.30;;;;;;;;;;5008528;28;20025;-65
2023/01/18 02:51:59;;;;;;;11.45;4.82;;;;;;;;;;5018631;28;20503;-64
2023/01/18 02:54:25;;;;;;;13.27;4.97;;;;;;;;;;5010214;28;20050;-65
2023/01/18 02:56:51;;;;;;;14.77;5.17;;;;;;;;;;5015472;28;20017;-65
2023/01/18 02:59:28;;;;;;;12.63;5.20;;;;;;;;;;5000824;28;20081;-64
2023/01/18 03:02:05;;;;;;;14.23;5.28;;;;;;;;;;5013270;28;20379;-65
2023/01/18 03:04:33;;;;;;;12.35;4.95;;;;;;;;;;5019134;28;20026;-69
2023/01/18 03:07:02;;;;;;;13.07;5.18;;;;;;;;;;5028588;28;20080;-66
2023/01/18 03:09:28;;;;;;;12.20;5.05;;;;;;;;;;5011236;28;20080;-66
2023/01/18 03:11:53;;;;;;;13.80;5.97;;;;;;;;;;5005496;28;20018;-64
2023/01/18 03:14:30;;;;;;;14.45;6.03;;;;;;;;;;5006720;28;20061;-66
2023/01/18 03:17:02;;;;;;;15.27;6.32;;;;;;;;;;5013313;28;20030;-65
2023/01/18 03:22:17;;;;;;;17.70;6.75;;;;;;;;;;5008782;28;20446;-64
2023/01/18 03:24:43;;;;;;;17.77;6.73;;;;;;;;;;5001555;28;20026;-65
2023/01/18 03:35:25;;;;;;;17.63;6.82;;;;;;;;;;5005492;28;20033;-66
2023/01/18 03:37:53;;;;;;;15.70;6.45;;;;;;;;;;5023180;28;20024;-64
2023/01/18 03:40:20;;;;;;;17.80;7.18;;;;;;;;;;5012869;28;20404;-66
2023/01/18 03:42:55;;;;;;;13.57;6.10;;;;;;;;;;5002281;28;20022;-66
2023/01/18 03:45:27;;;;;;;15.05;6.45;;;;;;;;;;5009576;28;20030;-69
2023/01/18 03:47:52;;;;;;;13.70;6.30;;;;;;;;;;5012424;28;20026;-64
2023/01/18 03:50:18;;;;;;;13.63;6.15;;;;;;;;;;5002750;28;20025;-64
2023/01/18 03:52:46;;;;;;;14.18;5.93;;;;;;;;;;5003599;28;20503;-65
2023/01/18 03:55:33;;;;;;;14.07;6.15;;;;;;;;;;5000945;28;20068;-64
2023/01/18 03:58:01;;;;;;;14.88;6.53;;;;;;;;;;5024326;28;20030;-65
2023/01/18 04:00:26;;;;;;;13.40;6.15;;;;;;;;;;5003454;28;20030;-63
2023/01/18 04:02:51;;;;;;;15.15;6.47;;;;;;;;;;5003938;28;20022;-65
2023/01/18 04:05:16;;;;;;;15.47;6.63;;;;;;;;;;4999718;28;20021;-63
2023/01/18 04:07:42;;;;;;;15.53;6.50;;;;;;;;;;5018787;28;20100;-66
2023/01/18 04:10:08;;;;;;;17.27;6.57;;;;;;;;;;5021643;28;20010;-64
2023/01/18 04:12:33;;;;;;;13.38;5.43;;;;;;;;;;5007476;28;20025;-63
2023/01/18 04:14:59;;;;;;;15.25;6.60;;;;;;;;;;5010001;28;20017;-65
2023/01/18 04:17:24;;;;;;;12.53;5.50;;;;;;;;;;5012661;28;20120;-65
2023/01/18 04:19:49;;;;;;;15.07;6.10;;;;;;;;;;4999086;28;20504;-64
2023/01/18 04:22:14;;;;;;;12.00;5.13;;;;;;;;;;5019743;28;20037;-64
2023/01/18 04:24:39;;;;;;;12.60;5.50;;;;;;;;;;5028843;28;20052;-64
2023/01/18 04:27:05;;;;;;;13.97;5.60;;;;;;;;;;5037311;28;20493;-65
2023/01/18 04:29:30;;;;;;;18.07;6.30;;;;;;;;;;5018145;28;20034;-65
2023/01/18 04:31:55;;;;;;;15.07;5.73;;;;;;;;;;5022970;28;20064;-64
2023/01/18 04:34:21;;;;;;;12.93;5.37;;;;;;;;;;5013680;28;20054;-65
2023/01/18 04:36:47;;;;;;;13.95;6.03;;;;;;;;;;5015637;28;20114;-64
2023/01/18 04:39:12;;;;;;;12.30;6.03;;;;;;;;;;5017226;28;20134;-64
2023/01/18 04:41:37;;;;;;;14.70;6.20;;;;;;;;;;5008809;28;20030;-66
2023/01/18 04:44:02;;;;;;;11.77;5.60;;;;;;;;;;5004825;28;20465;-63
2023/01/18 04:46:28;;;;;;;11.97;5.83;;;;;;;;;;5011570;28;20014;-64
2023/01/18 04:48:53;;;;;;;15.47;6.50;;;;;;;;;;5022057;28;20456;-64
2023/01/18 04:51:18;;;;;;;18.48;7.22;;;;;;;;;;5010215;28;20026;-65
2023/01/18 04:53:44;;;;;;;13.73;6.75;;;;;;;;;;5001688;28;21677;-64
2023/01/18 04:56:09;;;;;;;14.30;6.47;;;;;;;;;;5018946;28;20506;-65
2023/01/18 04:58:35;;;;;;;13.88;5.90;;;;;;;;;;5016128;28;20026;-64
2023/01/18 05:01:04;;;;;;;15.05;6.90;;;;;;;;;;5006620;28;20104;-64
2023/01/18 05:03:29;;;;;;;16.63;7.55;;;;;;;;;;5012587;28;20033;-65
2023/01/18 05:05:54;;;;;;;16.73;7.23;;;;;;;;;;5015730;28;20021;-64
2023/01/18 05:08:19;;;;;;;20.77;8.43;;;;;;;;;;5033560;28;20036;-66
2023/01/18 05:10:44;;;;;;;16.53;7.43;;;;;;;;;;5028594;28;20076;-64
2023/01/18 05:13:10;;;;;;;15.00;7.17;;;;;;;;;;5005207;28;20065;-66
2023/01/18 05:15:35;;;;;;;14.67;6.67;;;;;;;;;;5020625;28;20086;-66
2023/01/18 05:18:01;;;;;;;16.80;6.77;;;;;;;;;;5014789;28;20081;-65
2023/01/18 05:20:26;;;;;;;15.90;7.75;;;;;;;;;;5003077;28;20428;-66
2023/01/18 05:22:51;;;;;;;17.17;7.60;;;;;;;;;;5006909;28;20104;-64
2023/01/18 05:25:16;;;;;;;14.87;6.90;;;;;;;;;;5019515;28;20079;-64
2023/01/18 05:27:41;;;;;;;14.25;7.18;;;;;;;;;;5004189;28;20029;-64
2023/01/18 05:30:07;;;;;;;19.05;6.93;;;;;;;;;;4993356;28;20037;-65
2023/01/18 05:32:33;;;;;;;15.98;6.68;;;;;;;;;;5010889;28;20081;-65
2023/01/18 05:34:59;;;;;;;13.77;6.55;;;;;;;;;;5001847;28;20137;-63
2023/01/18 05:37:24;;;;;;;14.40;6.55;;;;;;;;;;5006104;28;20610;-66
2023/01/18 05:39:49;;;;;;;15.13;6.68;;;;;;;;;;5011654;28;20036;-64
2023/01/18 05:42:14;;;;;;;15.60;6.57;;;;;;;;;;5005078;28;20096;-65
2023/01/18 05:44:39;;;;;;;18.10;7.63;;;;;;;;;;5004669;28;20165;-65
2023/01/18 05:47:04;;;;;;;16.93;8.80;;;;;;;;;;5008877;28;20022;-66
2023/01/18 05:49:30;;;;;;;15.00;7.50;;;;;;;;;;5010077;28;20029;-67
2023/01/18 05:51:55;;;;;;;17.63;7.40;;;;;;;;;;5006201;28;20041;-64
2023/01/18 05:54:20;;;;;;;15.85;7.15;;;;;;;;;;5006156;28;20138;-65
2023/01/18 05:56:45;;;;;;;16.95;7.32;;;;;;;;;;4998382;28;20340;-67
2023/01/18 05:59:12;;;;;;;15.57;7.13;;;;;;;;;;5008109;28;20037;-65
2023/01/18 06:01:37;;;;;;;14.50;6.63;;;;;;;;;;5010934;28;20383;-64
2023/01/18 06:04:03;;;;;;;14.80;7.10;;;;;;;;;;5005847;28;20117;-66
2023/01/18 06:06:28;;;;;;;14.77;7.20;;;;;;;;;;5014400;28;20038;-64
2023/01/18 06:08:54;;;;;;;14.27;6.53;;;;;;;;;;5008162;28;20506;-65
2023/01/18 06:11:19;;;;;;;13.75;6.20;;;;;;;;;;5009784;28;20022;-65
2023/01/18 06:13:44;;;;;;;13.57;6.22;;;;;;;;;;5007502;28;20475;-65
2023/01/18 06:16:10;;;;;;;13.27;6.33;;;;;;;;;;4998695;28;20053;-66
2023/01/18 06:18:37;;;;;;;13.25;6.57;;;;;;;;;;5007113;28;20021;-64
2023/01/18 06:21:02;;;;;;;14.73;7.60;;;;;;;;;;5011349;28;20018;-68
2023/01/18 06:23:28;;;;;;;15.67;7.23;;;;;;;;;;5015799;28;20440;-65
2023/01/18 06:25:53;;;;;;;16.73;7.68;;;;;;;;;;5002345;28;20464;-65
2023/01/18 06:28:18;;;;;;;16.77;7.70;;;;;;;;;;5001545;28;20121;-65
2023/01/18 06:30:46;;;;;;;14.50;7.27;;;;;;;;;;5030520;28;20437;-65
2023/01/18 06:33:11;;;;;;;15.57;6.70;;;;;;;;;;5032576;28;20460;-63
2023/01/18 06:35:37;;;;;;;14.57;7.03;;;;;;;;;;5035849;28;20017;-66
2023/01/18 06:38:02;;;;;;;14.82;7.38;;;;;;;;;;5015120;28;20482;-67
2023/01/18 06:40:28;;;;;;;17.23;7.40;;;;;;;;;;5020575;28;20100;-64
2023/01/18 06:42:53;;;;;;;14.77;7.47;;;;;;;;;;5031429;28;20017;-65
2023/01/18 06:45:20;;;;;;;14.37;7.30;;;;;;;;;;5033120;28;20476;-64
2023/01/18 06:47:46;;;;;;;15.98;7.30;;;;;;;;;;5032663;28;20045;-66
2023/01/18 06:50:11;;;;;;;16.37;7.33;;;;;;;;;;5033384;28;20096;-65
2023/01/18 06:52:36;;;;;;;17.23;7.33;;;;;;;;;;5032972;28;20032;-65
2023/01/18 06:55:01;;;;;;;17.17;7.80;;;;;;;;;;5032625;28;20025;-65
2023/01/18 06:57:26;;;;;;;16.37;7.30;;;;;;;;;;5031395;28;20021;-66
2023/01/18 06:59:52;;;;;;;38.10;12.37;;;;;;;;;;5016142;28;20033;-65
2023/01/18 07:02:17;;;;;;;40.15;13.43;;;;;;;;;;5031114;28;20076;-64
2023/01/18 07:04:44;;;;;;;58.70;17.38;;;;;;;;;;5030869;28;20084;-65
2023/01/18 07:07:09;;;;;;;39.33;12.90;;;;;;;;;;5030695;28;20080;-65
2023/01/18 07:09:34;;;;;;;39.90;13.10;;;;;;;;;;5026308;28;20097;-65
2023/01/18 07:11:59;;;;;;;25.05;9.18;;;;;;;;;;5028913;28;20018;-64
2023/01/18 07:14:24;;;;;;;21.92;8.10;;;;;;;;;;5030734;28;20045;-66
2023/01/18 07:16:50;;;;;;;22.05;9.57;;;;;;;;;;5030765;28;20429;-63
2023/01/18 07:19:15;;;;;;;15.53;7.50;;;;;;;;;;5017247;28;20032;-63
2023/01/18 07:21:40;;;;;;;19.17;8.83;;;;;;;;;;5021462;28;20085;-65
2023/01/18 07:24:05;;;;;;;13.45;6.40;;;;;;;;;;5031062;28;20426;-65
2023/01/18 07:26:30;;;;;;;17.47;7.70;;;;;;;;;;5039487;28;20519;-64
2023/01/18 07:28:56;;;;;;;13.77;6.77;;;;;;;;;;5031915;28;20496;-64
2023/01/18 07:31:22;;;;;;;16.98;7.25;;;;;;;;;;5022396;28;20061;-66
2023/01/18 07:33:48;;;;;;;17.08;7.13;;;;;;;;;;5032680;28;20084;-64
2023/01/18 07:36:13;;;;;;;15.60;7.57;;;;;;;;;;5034225;28;20390;-65
2023/01/18 07:38:38;;;;;;;14.40;7.17;;;;;;;;;;5030329;28;20021;-65
2023/01/18 07:41:04;;;;;;;17.03;7.73;;;;;;;;;;5041503;28;20095;-66
2023/01/18 07:43:30;;;;;;;50.00;18.48;;;;;;;;;;5039408;28;21119;-64
2023/01/18 07:45:57;;;;;;;38.60;15.40;;;;;;;;;;5034932;28;20122;-63
2023/01/18 07:48:22;;;;;;;33.35;14.27;;;;;;;;;;5014073;28;20625;-64
2023/01/18 07:50:51;;;;;;;19.95;8.13;;;;;;;;;;5033758;28;20056;-64
2023/01/18 07:53:16;;;;;;;18.05;8.57;;;;;;;;;;5034484;28;20040;-65
2023/01/18 07:55:41;;;;;;;20.40;9.33;;;;;;;;;;5034856;28;20029;-64
2023/01/18 07:58:08;;;;;;;18.85;8.68;;;;;;;;;;5031894;28;20111;-64
2023/01/18 08:00:33;;;;;;;17.85;7.20;;;;;;;;;;5025771;28;20009;-65
2023/01/18 08:02:58;;;;;;;16.13;7.50;;;;;;;;;;5034270;28;20052;-65
2023/01/18 08:05:25;;;;;;;14.30;7.07;;;;;;;;;;5033803;28;20386;-65
2023/01/18 08:07:52;;;;;;;14.80;6.88;;;;;;;;;;5026727;28;20049;-65
2023/01/18 08:10:17;;;;;;;16.75;6.50;;;;;;;;;;5032075;28;20028;-63
2023/01/18 08:12:43;;;;;;;14.30;7.13;;;;;;;;;;5036153;28;20053;-65
2023/01/18 08:15:08;;;;;;;17.35;7.60;;;;;;;;;;5042255;28;20025;-63
2023/01/18 08:17:34;;;;;;;13.23;6.57;;;;;;;;;;5043346;28;20028;-64
2023/01/18 08:19:59;;;;;;;18.70;7.38;;;;;;;;;;5032957;28;20021;-64
2023/01/18 08:22:24;;;;;;;18.33;7.60;;;;;;;;;;5046717;28;20005;-63
2023/01/18 08:24:49;;;;;;;15.25;7.30;;;;;;;;;;5046222;28;20044;-64
2023/01/18 08:27:15;;;;;;;18.07;8.07;;;;;;;;;;5049480;28;20051;-64
2023/01/18 08:29:40;;;;;;;16.15;8.05;;;;;;;;;;5027435;28;20499;-64
2023/01/18 08:32:05;;;;;;;15.23;7.43;;;;;;;;;;5033775;28;20354;-65
2023/01/18 08:34:31;;;;;;;17.60;7.15;;;;;;;;;;5033546;28;20040;-65
2023/01/18 08:36:56;;;;;;;16.42;7.20;;;;;;;;;;5034844;28;20041;-67
2023/01/18 08:39:21;;;;;;;19.08;8.93;;;;;;;;;;5028125;28;20205;-63
2023/01/18 08:41:47;;;;;;;18.73;7.87;;;;;;;;;;5032994;28;20370;-63
2023/01/18 08:44:12;;;;;;;17.58;8.65;;;;;;;;;;5034081;28;20033;-63
2023/01/18 08:46:38;;;;;;;18.52;9.00;;;;;;;;;;5014899;28;20102;-64
2023/01/18 08:49:05;;;;;;;19.15;8.88;;;;;;;;;;5013275;28;20025;-64
2023/01/18 08:51:30;;;;;;;19.45;8.77;;;;;;;;;;5033206;28;20021;-62
2023/01/18 08:53:56;;;;;;;17.60;8.27;;;;;;;;;;5033590;28;20030;-65
2023/01/18 08:56:21;;;;;;;19.67;9.45;;;;;;;;;;5030947;28;20063;-63
2023/01/18 08:58:46;;;;;;;18.53;8.63;;;;;;;;;;5033080;28;20021;-64
2023/01/18 09:01:11;;;;;;;19.20;8.37;;;;;;;;;;5033250;28;20029;-63
2023/01/18 09:03:37;;;;;;;19.30;9.07;;;;;;;;;;5033939;28;20022;-63
2023/01/18 09:06:03;;;;;;;18.40;9.30;;;;;;;;;;5031790;28;20100;-63
2023/01/18 09:08:28;;;;;;;19.83;9.27;;;;;;;;;;5024611;28;20458;-63
2023/01/18 09:10:53;;;;;;;20.20;9.00;;;;;;;;;;5032715;28;20036;-65
2023/01/18 09:13:18;;;;;;;20.08;9.63;;;;;;;;;;5032931;28;20106;-64
2023/01/18 09:15:45;;;;;;;19.40;9.63;;;;;;;;;;5034113;28;20444;-64
2023/01/18 09:18:10;;;;;;;19.73;9.38;;;;;;;;;;5105210;23;20046;-61
2023/01/18 09:20:36;;;;;;;21.80;9.20;;;;;;;;;;5006715;28;20022;-64
2023/01/18 09:23:08;;;;;;;18.87;9.23;;;;;;;;;;5012188;28;20018;-62
2023/01/18 09:25:35;;;;;;;16.20;8.30;;;;;;;;;;5012437;28;20052;-63
2023/01/18 09:28:00;;;;;;;;;;;;;;;;;;4997176;28;20025;-62
2023/01/18 09:30:26;;;;;;;18.00;9.07;;;;;;;;;;4991589;28;19906;-62
2023/01/18 09:32:51;;;;;;;21.80;8.97;;;;;;;;;;4992512;28;20431;-62
2023/01/18 09:35:17;;;;;;;18.93;9.10;;;;;;;;;;4992546;28;20121;-61
2023/01/18 09:37:43;;;;;;;18.92;8.65;;;;;;;;;;4991824;28;20022;-60
2023/01/18 09:40:13;;;;;;;18.42;8.88;;;;;;;;;;4991454;28;20479;-62
2023/01/18 09:42:43;;;;;;;23.77;9.05;;;;;;;;;;4992140;28;20018;-60
2023/01/18 09:45:15;;;;;;;14.70;7.82;;;;;;;;;;4991863;28;20033;-61
2023/01/18 09:47:43;;;;;;;16.38;8.57;;;;;;;;;;4990960;28;20380;-63
2023/01/18 09:50:12;;;;;;;19.33;9.48;;;;;;;;;;4991667;28;20053;-62
2023/01/18 09:52:44;;;;;;;18.45;8.32;;;;;;;;;;4992300;28;20069;-62
2023/01/18 09:55:23;;;;;;;18.95;9.52;;;;;;;;;;4992325;28;20061;-62
2023/01/18 09:57:54;;;;;;;18.35;8.65;;;;;;;;;;4988687;28;20026;-60
2023/01/18 10:00:23;;;;;;;20.15;9.60;;;;;;;;;;4991459;28;20109;-60
2023/01/18 10:02:52;;;;;;;19.27;9.70;;;;;;;;;;4993197;28;20022;-62
2023/01/18 10:05:20;;;;;;;18.13;9.32;;;;;;;;;;4994030;28;20018;-60
2023/01/18 10:08:03;;;;;;;20.65;9.70;;;;;;;;;;4992111;28;20022;-61
2023/01/18 10:10:36;;;;;;;18.33;9.45;;;;;;;;;;4983378;28;20021;-60
2023/01/18 10:13:22;;;;;;;21.20;10.10;;;;;;;;;;4991241;28;20110;-60
2023/01/18 10:15:48;;;;;;;20.35;9.75;;;;;;;;;;4991756;28;20027;-60
2023/01/18 10:18:15;;;;;;;19.70;9.52;;;;;;;;;;4992502;28;20100;-60
2023/01/18 10:20:45;;;;;;;21.48;9.90;;;;;;;;;;5002090;28;20473;-60
2023/01/18 10:23:14;;;;;;;18.63;9.77;;;;;;;;;;5010900;28;20503;-60
2023/01/18 10:25:51;;;;;;;21.45;10.50;;;;;;;;;;5003493;28;20115;-59
2023/01/18 10:28:16;;;;;;;21.65;9.93;;;;;;;;;;4998928;28;20060;-60
2023/01/18 10:30:49;;;;;;;19.80;9.40;;;;;;;;;;5004127;28;20050;-60
2023/01/18 10:33:20;;;;;;;21.33;10.07;;;;;;;;;;5010763;28;20030;-60
2023/01/18 10:35:46;;;;;;;20.90;9.63;;;;;;;;;;5004466;28;20017;-60
2023/01/18 10:38:14;;;;;;;20.35;9.60;;;;;;;;;;5000606;28;20022;-60
2023/01/18 10:40:48;;;;;;;21.23;9.82;;;;;;;;;;5010401;28;20018;-62
2023/01/18 10:43:15;;;;;;;19.40;9.27;;;;;;;;;;5010652;28;20032;-59
2023/01/18 10:45:41;;;;;;;20.38;9.93;;;;;;;;;;5006473;28;20040;-60
2023/01/18 10:48:27;;;;;;;18.33;9.05;;;;;;;;;;5001960;28;20014;-62
2023/01/18 10:50:54;;;;;;;18.45;9.00;;;;;;;;;;5010094;28;20060;-61
2023/01/18 10:53:20;;;;;;;21.45;9.80;;;;;;;;;;5010557;28;20068;-60
2023/01/18 10:55:58;;;;;;;19.13;9.57;;;;;;;;;;5006653;28;20053;-62
2023/01/18 10:58:29;;;;;;;17.38;8.57;;;;;;;;;;5002147;28;20101;-62
2023/01/18 11:00:55;;;;;;;19.13;9.27;;;;;;;;;;5004560;28;20029;-62
2023/01/18 11:03:21;;;;;;;19.17;8.88;;;;;;;;;;4999036;28;20021;-62
2023/01/18 11:05:47;;;;;;;16.65;8.40;;;;;;;;;;4995900;28;20017;-60
2023/01/18 11:08:23;;;;;;;18.08;9.23;;;;;;;;;;5002285;28;20801;-62
2023/01/18 11:10:57;;;;;;;19.15;9.20;;;;;;;;;;5009366;28;20018;-62
2023/01/18 11:13:23;;;;;;;18.45;10.10;;;;;;;;;;5010259;28;20438;-59
2023/01/18 11:16:01;;;;;;;19.67;9.60;;;;;;;;;;5007212;28;20022;-62
2023/01/18 11:18:26;;;;;;;18.50;9.07;;;;;;;;;;5001826;28;20033;-62
2023/01/18 11:20:51;;;;;;;19.63;10.03;;;;;;;;;;5009817;28;20471;-62
2023/01/18 11:23:24;;;;;;;19.45;9.45;;;;;;;;;;5010347;28;20071;-62
2023/01/18 11:25:52;;;;;;;19.10;9.38;;;;;;;;;;5011575;28;20391;-62
2023/01/18 11:28:19;;;;;;;20.13;9.68;;;;;;;;;;5004218;28;20428;-62
2023/01/18 11:30:52;;;;;;;20.63;9.98;;;;;;;;;;4994376;28;20030;-62
2023/01/18 11:33:19;;;;;;;19.90;10.02;;;;;;;;;;4994387;28;20482;-61
2023/01/18 11:35:44;;;;;;;19.05;9.68;;;;;;;;;;4998535;28;20427;-62
2023/01/18 11:38:16;;;;;;;19.37;9.63;;;;;;;;;;5002843;28;20025;-63
2023/01/18 11:40:42;;;;;;;20.73;9.82;;;;;;;;;;5007136;28;20068;-61
2023/01/18 11:43:10;;;;;;;18.63;9.73;;;;;;;;;;5014132;28;20029;-61
2023/01/18 11:45:46;;;;;;;20.40;10.10;;;;;;;;;;5010968;28;20021;-64
2023/01/18 11:48:21;;;;;;;21.63;10.52;;;;;;;;;;5005647;28;20022;-61
2023/01/18 11:50:51;;;;;;;19.98;9.68;;;;;;;;;;5013601;28;20021;-61
2023/01/18 11:53:37;;;;;;;20.92;10.45;;;;;;;;;;5013661;28;20515;-62
2023/01/18 11:56:10;;;;;;;21.13;10.73;;;;;;;;;;5001793;28;20157;-63
2023/01/18 11:58:36;;;;;;;21.17;10.88;;;;;;;;;;5001048;28;20054;-62
2023/01/18 12:01:10;;;;;;;20.20;10.23;;;;;;;;;;4993502;28;20101;-61
2023/01/18 12:03:46;;;;;;;20.42;10.30;;;;;;;;;;4994945;28;20391;-62
2023/01/18 12:06:20;;;;;;;24.55;9.88;;;;;;;;;;5001478;28;20022;-61
2023/01/18 12:08:53;;;;;;;21.23;10.70;;;;;;;;;;4995074;28;20046;-61
2023/01/18 12:11:21;;;;;;;23.45;10.98;;;;;;;;;;5003357;28;20092;-60
2023/01/18 12:13:46;;;;;;;20.48;10.13;;;;;;;;;;5013165;28;20386;-60
2023/01/18 12:16:30;;;;;;;21.13;10.32;;;;;;;;;;5013903;28;20029;-60
2023/01/18 12:19:07;;;;;;;23.35;11.45;;;;;;;;;;5004566;28;20547;-61
2023/01/18 12:21:32;;;;;;;19.42;10.80;;;;;;;;;;4999861;28;20029;-60
2023/01/18 12:24:12;;;;;;;23.47;10.80;;;;;;;;;;5013958;28;20044;-60
2023/01/18 12:26:56;;;;;;;26.73;12.60;;;;;;;;;;5014504;28;20418;-60
2023/01/18 12:29:24;;;;;;;25.90;11.45;;;;;;;;;;4992187;28;20076;-63
2023/01/18 12:31:49;;;;;;;23.95;11.85;;;;;;;;;;5001412;28;20084;-61
2023/01/18 12:34:22;;;;;;;24.25;12.20;;;;;;;;;;5010966;28;20053;-62
2023/01/18 12:36:56;;;;;;;23.65;11.18;;;;;;;;;;5012998;28;20432;-59
2023/01/18 12:39:29;;;;;;;23.67;11.50;;;;;;;;;;5003907;28;20080;-63
2023/01/18 12:41:58;;;;;;;23.60;11.20;;;;;;;;;;4997494;28;20018;-61
2023/01/18 12:44:32;;;;;;;23.92;11.73;;;;;;;;;;4992767;28;20496;-60
2023/01/18 12:47:00;;;;;;;24.23;11.82;;;;;;;;;;4977454;28;20102;-59
2023/01/18 12:49:28;;;;;;;22.27;11.27;;;;;;;;;;4989883;28;20018;-60
2023/01/18 12:51:55;;;;;;;20.98;11.23;;;;;;;;;;4985094;28;20508;-60
2023/01/18 12:54:24;;;;;;;24.35;11.63;;;;;;;;;;4991720;28;20035;-59
2023/01/18 12:56:51;;;;;;;28.02;12.88;;;;;;;;;;4987808;28;20018;-60
2023/01/18 12:59:21;;;;;;;27.13;12.43;;;;;;;;;;4994729;28;20497;-60
2023/01/18 13:01:56;;;;;;;24.13;11.57;;;;;;;;;;4998497;28;20472;-60
2023/01/18 13:04:23;;;;;;;25.45;12.20;;;;;;;;;;4989951;28;20451;-60
2023/01/18 13:06:50;;;;;;;23.65;11.85;;;;;;;;;;4990066;28;20035;-60
2023/01/18 13:09:16;;;;;;;;;;;;;;;;;;4998100;28;20022;-59
2023/01/18 13:11:42;;;;;;;24.70;11.45;;;;;;;;;;5001831;28;19997;-60
2023/01/18 13:14:25;;;;;;;25.50;12.00;;;;;;;;;;4985485;28;20033;-61
2023/01/18 13:16:59;;;;;;;26.63;12.20;;;;;;;;;;4998736;28;20022;-60
2023/01/18 13:19:28;;;;;;;25.63;11.98;;;;;;;;;;4993858;28;20038;-60
2023/01/18 13:21:53;;;;;;;25.00;12.52;;;;;;;;;;4996621;28;20026;-61
2023/01/18 13:24:37;;;;;;;25.60;11.40;;;;;;;;;;4997849;28;20080;-60
2023/01/18 13:27:09;;;;;;;26.35;12.48;;;;;;;;;;4994947;28;20019;-64
2023/01/18 13:29:35;;;;;;;23.13;11.18;;;;;;;;;;4994289;28;20349;-62
2023/01/18 13:32:00;;;;;;;26.75;12.38;;;;;;;;;;4998210;28;20037;-63
2023/01/18 13:34:31;;;;;;;25.83;11.60;;;;;;;;;;4992824;28;20038;-60
2023/01/18 13:36:57;;;;;;;25.60;11.98;;;;;;;;;;4991107;28;20116;-61
2023/01/18 13:39:23;;;;;;;29.52;12.18;;;;;;;;;;4991469;28;20018;-63
2023/01/18 13:42:03;;;;;;;29.15;12.88;;;;;;;;;;4990934;28;20113;-59
2023/01/18 13:44:35;;;;;;;27.15;11.95;;;;;;;;;;4989202;28;20026;-60
2023/01/18 13:47:00;;;;;;;28.25;12.60;;;;;;;;;;4972765;28;20018;-64
2023/01/18 13:49:43;;;;;;;25.90;11.80;;;;;;;;;;4990215;28;20578;-60
2023/01/18 13:52:27;;;;;;;28.60;11.77;;;;;;;;;;4991790;28;20026;-60
2023/01/18 13:54:53;;;;;;;25.63;12.00;;;;;;;;;;4991653;28;20094;-60
2023/01/18 13:57:19;;;;;;;27.17;12.07;;;;;;;;;;4986651;28;20730;-61
2023/01/18 13:59:46;;;;;;;27.00;11.88;;;;;;;;;;4988997;28;20018;-59
2023/01/18 14:02:24;;;;;;;25.33;10.95;;;;;;;;;;4991204;28;20022;-61
2023/01/18 14:05:06;;;;;;;25.92;11.95;;;;;;;;;;4974101;28;20027;-63
2023/01/18 14:07:36;;;;;;;26.30;12.23;;;;;;;;;;4988162;28;20018;-62
2023/01/18 14:10:04;;;;;;;27.55;12.05;;;;;;;;;;4991749;28;20050;-62
2023/01/18 14:12:45;;;;;;;28.73;12.93;;;;;;;;;;5003071;28;20026;-60
2023/01/18 14:15:21;;;;;;;26.15;12.23;;;;;;;;;;4990292;28;20038;-60
2023/01/18 14:17:47;;;;;;;25.40;11.48;;;;;;;;;;4990969;28;20400;-61
2023/01/18 14:20:25;;;;;;;29.77;13.17;;;;;;;;;;4991007;28;20026;-60
2023/01/18 14:23:08;;;;;;;29.50;12.30;;;;;;;;;;4988559;28;20186;-60
2023/01/18 14:25:52;;;;;;;28.35;12.82;;;;;;;;;;4983916;28;20521;-60
2023/01/18 14:28:31;;;;;;;28.25;12.93;;;;;;;;;;4988483;28;20022;-60
2023/01/18 14:30:57;;;;;;;25.17;11.32;;;;;;;;;;4971492;28;20499;-60
2023/01/18 14:33:22;;;;;;;26.92;12.98;;;;;;;;;;4984396;28;20168;-64
2023/01/18 14:35:50;;;;;;;24.48;12.13;;;;;;;;;;4991546;28;20054;-64
2023/01/18 14:38:15;;;;;;;32.45;13.88;;;;;;;;;;4987288;28;20109;-61
2023/01/18 14:40:41;;;;;;;28.02;12.27;;;;;;;;;;4989573;28;20065;-60
2023/01/18 14:43:13;;;;;;;24.83;11.25;;;;;;;;;;4987693;28;20034;-59
2023/01/18 14:45:44;;;;;;;25.45;12.10;;;;;;;;;;4988655;28;20030;-61
2023/01/18 14:48:11;;;;;;;26.27;12.73;;;;;;;;;;4991288;28;20357;-63
2023/01/18 14:50:36;;;;;;;;;;;;;;;;;;4991196;28;20041;-60
2023/01/18 14:53:03;;;;;;;27.45;11.95;;;;;;;;;;4990144;28;19910;-60
2023/01/18 14:55:30;;;;;;;27.20;12.07;;;;;;;;;;4983185;28;20034;-59
2023/01/18 14:58:14;;;;;;;22.95;11.38;;;;;;;;;;4988289;28;20022;-62
2023/01/18 15:00:47;;;;;;;26.30;12.00;;;;;;;;;;4975582;28;20030;-61
2023/01/18 15:03:13;;;;;;;25.15;12.10;;;;;;;;;;4981020;28;20029;-59
2023/01/18 15:05:40;;;;;;;23.98;11.65;;;;;;;;;;4988912;28;20030;-59
2023/01/18 15:08:06;;;;;;;24.35;11.57;;;;;;;;;;4985466;28;20073;-60